createdAt,value
2018-06-14T00:01:59.150Z,98141.73
2018-06-14T00:04:27.835Z,98141.73
2018-06-14T00:06:57.051Z,98145.00
2018-06-14T00:09:25.609Z,98142.73
2018-06-14T00:11:54.167Z,98144.03
2018-06-14T00:14:22.910Z,98142.19
2018-06-14T00:16:51.877Z,98139.77
2018-06-14T00:19:20.485Z,98144.48
2018-06-14T00:21:49.512Z,98139.34
2018-06-14T00:24:18.357Z,98144.48
2018-06-14T00:26:47.806Z,98146.39
2018-06-14T00:29:16.753Z,98145.59
2018-06-14T00:31:45.977Z,98144.78
2018-06-14T00:34:14.528Z,98143.20
2018-06-14T00:36:43.476Z,98141.52
2018-06-14T00:39:12.176Z,98132.50
2018-06-14T00:41:41.512Z,98131.52
2018-06-14T00:44:10.513Z,98130.49
2018-06-14T00:46:39.361Z,98129.20
2018-06-14T00:49:08.631Z,98126.84
2018-06-14T00:51:37.452Z,98126.10
2018-06-14T00:54:06.127Z,98123.38
2018-06-14T00:56:45.834Z,98124.13
2018-06-14T00:59:14.622Z,98126.23
2018-06-14T01:01:43.832Z,98125.68
2018-06-14T01:04:13.289Z,98121.41
2018-06-14T01:06:42.371Z,98125.71
2018-06-14T01:09:11.632Z,98129.08
2018-06-14T01:11:40.887Z,98126.42
2018-06-14T01:14:09.596Z,98126.55
2018-06-14T01:16:39.114Z,98133.11
2018-06-14T01:19:07.931Z,98129.82
2018-06-14T01:21:36.626Z,98128.55
2018-06-14T01:24:05.496Z,98130.95
2018-06-14T01:26:34.369Z,98118.47
2018-06-14T01:29:03.227Z,98127.48
2018-06-14T01:31:32.512Z,98130.04
2018-06-14T01:34:01.322Z,98124.13
2018-06-14T01:36:30.113Z,98123.87
2018-06-14T01:38:58.848Z,98121.70
2018-06-14T01:41:27.518Z,98127.77
2018-06-14T01:43:56.197Z,98126.80
2018-06-14T01:46:25.043Z,98118.02
2018-06-14T01:48:53.707Z,98118.66
2018-06-14T01:51:22.503Z,98112.91
2018-06-14T01:53:51.694Z,98109.45
2018-06-14T01:56:21.058Z,98115.95
2018-06-14T01:58:49.760Z,98116.43
2018-06-14T02:01:18.405Z,98111.23
2018-06-14T02:03:47.188Z,98121.22
2018-06-14T02:06:16.727Z,98117.24
2018-06-14T02:08:45.291Z,98119.14
2018-06-14T02:11:14.124Z,98115.62
2018-06-14T02:13:43.399Z,98111.30
2018-06-14T02:16:12.042Z,98117.91
2018-06-14T02:18:41.532Z,98113.30
2018-06-14T02:21:10.312Z,98110.58
2018-06-14T02:23:38.853Z,98108.41
2018-06-14T02:26:07.902Z,98104.67
2018-06-14T02:28:36.547Z,98098.17
2018-06-14T02:31:05.138Z,98100.17
2018-06-14T02:33:33.807Z,98093.39
2018-06-14T02:36:02.595Z,98091.77
2018-06-14T02:38:31.103Z,98096.16
2018-06-14T02:40:59.983Z,98085.38
2018-06-14T02:43:29.383Z,98092.42
2018-06-14T02:45:58.164Z,98091.28
2018-06-14T02:48:26.739Z,98098.07
2018-06-14T02:50:56.144Z,98097.84
2018-06-14T02:53:24.792Z,98100.94
2018-06-14T02:55:53.369Z,98100.68
2018-06-14T02:58:22.172Z,98094.77
2018-06-14T03:00:50.949Z,98092.66
2018-06-14T03:03:19.669Z,98106.48
2018-06-14T03:05:48.225Z,98105.36
2018-06-14T03:08:17.143Z,98105.36
2018-06-14T03:10:46.529Z,98109.43
2018-06-14T03:13:15.157Z,98108.08
2018-06-14T03:15:43.839Z,98104.59
2018-06-14T03:18:12.529Z,98102.73
2018-06-14T03:20:41.859Z,98101.88
2018-06-14T03:23:11.034Z,98095.64
2018-06-14T03:25:39.750Z,98097.22
2018-06-14T03:28:08.462Z,98094.28
2018-06-14T03:30:37.297Z,98098.34
2018-06-14T03:33:06.067Z,98095.37
2018-06-14T03:35:34.730Z,98099.38
2018-06-14T03:38:03.433Z,98096.61
2018-06-14T03:40:32.464Z,98099.58
2018-06-14T03:43:01.680Z,98096.61
2018-06-14T03:45:30.954Z,98099.33
2018-06-14T03:48:00.328Z,98100.12
2018-06-14T03:50:29.769Z,98104.20
2018-06-14T03:52:58.594Z,98106.11
2018-06-14T03:55:27.924Z,98102.30
2018-06-14T03:57:56.852Z,98095.86
2018-06-14T04:00:25.612Z,98103.02
2018-06-14T04:02:54.607Z,98100.07
2018-06-14T04:05:23.328Z,98101.91
2018-06-14T04:07:52.083Z,98103.75
2018-06-14T04:10:21.926Z,98109.03
2018-06-14T04:12:50.833Z,98110.32
2018-06-14T04:15:19.657Z,98105.47
2018-06-14T04:17:52.802Z,98107.80
2018-06-14T04:20:21.684Z,98112.78
2018-06-14T04:22:50.487Z,98108.48
2018-06-14T04:25:19.169Z,98111.33
2018-06-14T04:27:47.888Z,98110.68
2018-06-14T04:30:16.898Z,98111.49
2018-06-14T04:32:46.714Z,98116.85
2018-06-14T04:35:15.365Z,98117.23
2018-06-14T04:37:44.510Z,98124.13
2018-06-14T04:40:13.063Z,98112.38
2018-06-14T04:42:42.142Z,98122.05
2018-06-14T04:45:10.853Z,98122.38
2018-06-14T04:47:39.573Z,98121.75
2018-06-14T04:50:08.799Z,98121.91
2018-06-14T04:52:37.493Z,98132.87
2018-06-14T04:55:06.532Z,98130.23
2018-06-14T04:57:35.441Z,98124.83
2018-06-14T05:00:04.534Z,98135.33
2018-06-14T05:02:33.868Z,98134.93
2018-06-14T05:05:03.026Z,98133.02
2018-06-14T05:07:32.513Z,98124.55
2018-06-14T05:10:01.199Z,98125.66
2018-06-14T05:12:30.760Z,98122.80
2018-06-14T05:15:00.268Z,98129.05
2018-06-14T05:17:29.187Z,98132.25
2018-06-14T05:19:58.040Z,98131.63
2018-06-14T05:22:26.718Z,98127.54
2018-06-14T05:24:55.519Z,98134.48
2018-06-14T05:27:24.196Z,98139.30
2018-06-14T05:29:53.372Z,98134.08
2018-06-14T05:32:22.651Z,98136.65
2018-06-14T05:34:51.806Z,98142.34
2018-06-14T05:37:20.855Z,98143.84
2018-06-14T05:39:49.592Z,98141.54
2018-06-14T05:42:18.563Z,98137.44
2018-06-14T05:44:47.416Z,98133.73
2018-06-14T05:47:16.141Z,98135.80
2018-06-14T05:49:44.750Z,98131.83
2018-06-14T05:52:13.471Z,98130.67
2018-06-14T05:54:42.069Z,98138.34
2018-06-14T05:57:10.830Z,98136.95
2018-06-14T05:59:39.584Z,98135.92
2018-06-14T06:02:08.344Z,98130.90
2018-06-14T06:04:37.001Z,98131.53
2018-06-14T06:07:05.971Z,98128.09
2018-06-14T06:09:35.094Z,98134.33
2018-06-14T06:12:03.926Z,98136.61
2018-06-14T06:14:32.578Z,98136.36
2018-06-14T06:17:01.375Z,98129.95
2018-06-14T06:19:30.000Z,98134.24
2018-06-14T06:21:58.774Z,98137.41
2018-06-14T06:24:27.464Z,98142.91
2018-06-14T06:26:56.266Z,98139.45
2018-06-14T06:29:24.914Z,98149.22
2018-06-14T06:31:53.490Z,98137.94
2018-06-14T06:34:22.507Z,98142.41
2018-06-14T06:36:51.281Z,98136.02
2018-06-14T06:39:19.918Z,98138.31
2018-06-14T06:41:49.170Z,98137.69
2018-06-14T06:44:17.909Z,98135.89
2018-06-14T06:46:46.566Z,98127.58
2018-06-14T06:49:15.236Z,98134.07
2018-06-14T06:51:43.947Z,98129.46
2018-06-14T06:54:12.581Z,98139.96
2018-06-14T06:56:41.535Z,98136.66
2018-06-14T06:59:10.786Z,98146.45
2018-06-14T07:01:39.913Z,98138.89
2018-06-14T07:04:08.801Z,98136.02
2018-06-14T07:06:37.441Z,98138.33
2018-06-14T07:09:08.786Z,98129.41
2018-06-14T07:11:37.941Z,98135.85
2018-06-14T07:14:07.716Z,98126.06
2018-06-14T07:16:37.403Z,98129.99
2018-06-14T07:19:06.062Z,98129.65
2018-06-14T07:21:35.698Z,98130.97
2018-06-14T07:24:04.506Z,98130.14
2018-06-14T07:26:33.250Z,98122.67
2018-06-14T07:29:02.419Z,98125.87
2018-06-14T07:31:31.485Z,98131.63
2018-06-14T07:34:00.409Z,98127.44
2018-06-14T07:36:29.139Z,98126.97
2018-06-14T07:38:57.857Z,98123.45
2018-06-14T07:41:26.500Z,98129.23
2018-06-14T07:43:55.310Z,98133.52
2018-06-14T07:46:23.940Z,98133.15
2018-06-14T07:48:53.680Z,98132.88
2018-06-14T07:51:22.425Z,98134.89
2018-06-14T07:53:51.889Z,98130.81
2018-06-14T07:56:20.876Z,98135.06
2018-06-14T07:58:49.551Z,98136.62
2018-06-14T08:01:18.291Z,98136.48
2018-06-14T08:03:46.983Z,98139.22
2018-06-14T08:06:15.856Z,98141.09
2018-06-14T08:08:44.693Z,98138.16
2018-06-14T08:11:13.331Z,98135.98
2018-06-14T08:13:42.475Z,98147.31
2018-06-14T08:16:11.346Z,98148.99
2018-06-14T08:18:40.007Z,98147.80
2018-06-14T08:21:09.090Z,98143.30
2018-06-14T08:23:38.382Z,98135.13
2018-06-14T08:26:07.487Z,98135.16
2018-06-14T08:28:36.895Z,98126.48
2018-06-14T08:31:05.836Z,98127.74
2018-06-14T08:33:34.387Z,98129.73
2018-06-14T08:36:04.779Z,98130.03
2018-06-14T08:38:33.411Z,98129.27
2018-06-14T08:41:03.206Z,98138.02
2018-06-14T08:43:32.166Z,98141.66
2018-06-14T08:46:01.665Z,98138.69
2018-06-14T08:48:30.292Z,98135.54
2018-06-14T08:50:59.104Z,98139.02
2018-06-14T08:53:29.111Z,98137.34
2018-06-14T08:55:57.875Z,98136.04
2018-06-14T08:58:26.630Z,98138.02
2018-06-14T09:00:55.482Z,98136.58
2018-06-14T09:03:24.349Z,98134.32
2018-06-14T09:05:53.222Z,98135.34
2018-06-14T09:08:22.411Z,98132.73
2018-06-14T09:10:51.465Z,98129.72
2018-06-14T09:13:20.112Z,98130.98
2018-06-14T09:15:49.309Z,98137.12
2018-06-14T09:18:18.378Z,98138.49
2018-06-14T09:20:47.220Z,98142.27
2018-06-14T09:23:16.444Z,98141.63
2018-06-14T09:25:45.306Z,98147.44
2018-06-14T09:28:13.920Z,98140.67
2018-06-14T09:30:42.606Z,98141.09
2018-06-14T09:33:11.384Z,98136.95
2018-06-14T09:35:40.236Z,98135.98
2018-06-14T09:38:10.454Z,98139.14
2018-06-14T09:40:39.825Z,98135.56
2018-06-14T09:43:08.695Z,98132.39
2018-06-14T09:45:38.609Z,98137.80
2018-06-14T09:48:07.252Z,98137.77
2018-06-14T09:50:35.896Z,98138.46
2018-06-14T09:53:04.907Z,98132.73
2018-06-14T09:55:33.791Z,98139.29
2018-06-14T09:58:02.405Z,98133.02
2018-06-14T10:00:31.277Z,98140.05
2018-06-14T10:03:01.021Z,98138.73
2018-06-14T10:05:29.710Z,98139.98
2018-06-14T10:07:58.921Z,98129.41
2018-06-14T10:10:27.746Z,98137.54
2018-06-14T10:12:56.377Z,98134.56
2018-06-14T10:15:25.236Z,98138.45
2018-06-14T10:17:53.862Z,98135.27
2018-06-14T10:20:23.106Z,98128.88
2018-06-14T10:22:51.854Z,98130.03
2018-06-14T10:25:20.565Z,98130.76
2018-06-14T10:27:49.940Z,98128.27
2018-06-14T10:30:18.957Z,98126.14
2018-06-14T10:32:47.857Z,98122.74
2018-06-14T10:35:16.519Z,98123.19
2018-06-14T10:37:45.217Z,98112.45
2018-06-14T10:40:13.972Z,98105.74
2018-06-14T10:42:43.096Z,98116.91
2018-06-14T10:45:12.003Z,98107.68
2018-06-14T10:47:40.760Z,98112.61
2018-06-14T10:50:09.437Z,98114.16
2018-06-14T10:52:38.200Z,98111.34
2018-06-14T10:55:06.947Z,98110.23
2018-06-14T10:57:35.600Z,98111.85
2018-06-14T11:00:04.970Z,98101.89
2018-06-14T11:02:34.096Z,98107.46
2018-06-14T11:05:02.922Z,98108.96
2018-06-14T11:07:31.592Z,98101.97
2018-06-14T11:10:00.488Z,98104.60
2018-06-14T11:12:29.896Z,98092.42
2018-06-14T11:14:58.503Z,98095.09
2018-06-14T11:17:27.364Z,98100.36
2018-06-14T11:19:56.031Z,98090.61
2018-06-14T11:22:24.801Z,98091.05
2018-06-14T11:24:57.732Z,98089.43
2018-06-14T11:27:26.412Z,98084.44
2018-06-14T11:29:55.279Z,98075.34
2018-06-14T11:32:23.828Z,98086.28
2018-06-14T11:34:52.882Z,98089.56
2018-06-14T11:37:22.058Z,98076.69
2018-06-14T11:39:50.821Z,98073.84
2018-06-14T11:42:19.517Z,98070.07
2018-06-14T11:44:48.090Z,98075.30
2018-06-14T11:47:17.096Z,98067.74
2018-06-14T11:49:45.682Z,98064.36
2018-06-14T11:52:14.461Z,98074.42
2018-06-14T11:54:43.932Z,98072.56
2018-06-14T11:57:12.662Z,98074.92
2018-06-14T11:59:41.219Z,98063.30
2018-06-14T12:02:10.397Z,98058.91
2018-06-14T12:04:39.707Z,98055.61
2018-06-14T12:07:08.627Z,98051.35
2018-06-14T12:09:37.496Z,98051.75
2018-06-14T12:12:06.822Z,98046.03
2018-06-14T12:14:35.528Z,98054.59
2018-06-14T12:17:04.186Z,98046.36
2018-06-14T12:19:34.042Z,98046.66
2018-06-14T12:22:03.218Z,98040.83
2018-06-14T12:24:32.409Z,98042.22
2018-06-14T12:27:01.598Z,98035.39
2018-06-14T12:29:30.682Z,98033.53
2018-06-14T12:31:59.578Z,98029.16
2018-06-14T12:34:28.406Z,98031.61
2018-06-14T12:36:57.134Z,98024.36
2018-06-14T12:39:25.918Z,98021.72
2018-06-14T12:41:54.748Z,98014.52
2018-06-14T12:44:23.612Z,98011.66
2018-06-14T12:46:52.539Z,98011.13
2018-06-14T12:49:21.684Z,98013.56
2018-06-14T12:51:51.207Z,98009.56
2018-06-14T12:54:20.227Z,98010.73
2018-06-14T12:56:49.068Z,98005.00
2018-06-14T12:59:18.387Z,97996.89
2018-06-14T13:01:47.127Z,97998.45
2018-06-14T13:04:16.507Z,97994.35
2018-06-14T13:06:45.128Z,97999.11
2018-06-14T13:09:13.945Z,97999.27
2018-06-14T13:11:42.743Z,97992.77
2018-06-14T13:14:12.282Z,98003.03
2018-06-14T13:16:40.883Z,97999.14
2018-06-14T13:19:09.653Z,97990.91
2018-06-14T13:21:38.378Z,97991.67
2018-06-14T13:24:07.903Z,97982.06
2018-06-14T13:26:36.807Z,97995.69
2018-06-14T13:29:06.262Z,97991.94
2018-06-14T13:31:35.674Z,97987.17
2018-06-14T13:34:04.788Z,97990.08
2018-06-14T13:36:33.903Z,97987.34
2018-06-14T13:39:02.679Z,97985.66
2018-06-14T13:41:31.517Z,97980.03
2018-06-14T13:44:00.374Z,97980.61
2018-06-14T13:46:29.882Z,97982.94
2018-06-14T13:48:58.673Z,97977.41
2018-06-14T13:51:27.238Z,97977.67
2018-06-14T13:53:55.942Z,97977.89
2018-06-14T13:56:24.896Z,97972.43
2018-06-14T13:58:54.557Z,97977.43
2018-06-14T14:01:23.369Z,97975.13
2018-06-14T14:03:52.168Z,97965.61
2018-06-14T14:06:21.031Z,97964.88
2018-06-14T14:08:49.717Z,97966.91
2018-06-14T14:11:18.375Z,97963.44
2018-06-14T14:13:46.956Z,97957.91
2018-06-14T14:16:15.764Z,97958.80
2018-06-14T14:18:45.837Z,97963.49
2018-06-14T14:21:15.293Z,97953.97
2018-06-14T14:23:44.318Z,97954.55
2018-06-14T14:26:13.868Z,97951.80
2018-06-14T14:28:42.748Z,97953.42
2018-06-14T14:31:11.962Z,97951.36
2018-06-14T14:33:41.408Z,97945.83
2018-06-14T14:36:10.292Z,97940.12
2018-06-14T14:38:38.992Z,97936.78
2018-06-14T14:41:07.990Z,97939.91
2018-06-14T14:43:36.792Z,97941.66
2018-06-14T14:46:05.730Z,97941.56
2018-06-14T14:48:34.712Z,97936.14
2018-06-14T14:51:03.867Z,97926.13
2018-06-14T14:53:32.441Z,97934.69
2018-06-14T14:56:01.936Z,97931.83
2018-06-14T14:58:30.682Z,97929.34
2018-06-14T15:00:59.334Z,97931.69
2018-06-14T15:03:28.146Z,97931.02
2018-06-14T15:05:57.061Z,97929.00
2018-06-14T15:08:25.852Z,97927.45
2018-06-14T15:10:54.648Z,97925.27
2018-06-14T15:13:24.106Z,97933.47
2018-06-14T15:15:53.336Z,97930.47
2018-06-14T15:18:22.013Z,97922.66
2018-06-14T15:20:50.589Z,97920.41
2018-06-14T15:23:19.938Z,97919.22
2018-06-14T15:25:49.057Z,97917.05
2018-06-14T15:28:17.728Z,97913.88
2018-06-14T15:30:46.563Z,97913.58
2018-06-14T15:33:15.465Z,97916.05
2018-06-14T15:35:44.042Z,97918.14
2018-06-14T15:38:13.353Z,97918.02
2018-06-14T15:40:42.468Z,97918.28
2018-06-14T15:43:11.698Z,97915.73
2018-06-14T15:45:40.987Z,97914.88
2018-06-14T15:48:10.392Z,97914.81
2018-06-14T15:50:39.388Z,97908.08
2018-06-14T15:53:08.034Z,97904.14
2018-06-14T15:55:48.369Z,97900.27
2018-06-14T15:58:17.881Z,97901.67
2018-06-14T16:00:47.955Z,97909.93
2018-06-14T16:03:16.770Z,97906.44
2018-06-14T16:05:46.340Z,97906.52
2018-06-14T16:08:15.447Z,97900.95
2018-06-14T16:10:44.544Z,97903.13
2018-06-14T16:13:13.319Z,97904.17
2018-06-14T16:15:42.460Z,97899.86
2018-06-14T16:18:11.673Z,97900.70
2018-06-14T16:20:40.715Z,97900.95
2018-06-14T16:23:09.518Z,97900.15
2018-06-14T16:25:38.503Z,97901.27
2018-06-14T16:28:07.495Z,97904.83
2018-06-14T16:30:36.765Z,97905.02
2018-06-14T16:33:06.153Z,97911.96
2018-06-14T16:35:35.149Z,97909.98
2018-06-14T16:38:04.304Z,97912.05
2018-06-14T16:40:33.455Z,97910.65
2018-06-14T16:43:02.365Z,97908.60
2018-06-14T16:45:31.395Z,97912.22
2018-06-14T16:48:00.186Z,97911.28
2018-06-14T16:50:29.134Z,97909.11
2018-06-14T16:52:57.953Z,97907.12
2018-06-14T16:55:27.913Z,97908.38
2018-06-14T16:57:56.714Z,97909.36
2018-06-14T17:00:26.295Z,97907.00
2018-06-14T17:02:55.873Z,97906.54
2018-06-14T17:05:24.733Z,97909.23
2018-06-14T17:07:53.508Z,97913.51
2018-06-14T17:10:22.229Z,97910.56
2018-06-14T17:12:51.505Z,97904.48
2018-06-14T17:15:20.749Z,97906.38
2018-06-14T17:17:49.547Z,97908.55
2018-06-14T17:20:19.163Z,97911.61
2018-06-14T17:22:47.844Z,97913.14
2018-06-14T17:25:16.700Z,97913.67
2018-06-14T17:27:45.398Z,97913.76
2018-06-14T17:30:14.387Z,97915.05
2018-06-14T17:32:43.284Z,97917.73
2018-06-14T17:35:12.674Z,97915.66
2018-06-14T17:37:41.628Z,97917.34
2018-06-14T17:40:10.695Z,97914.28
2018-06-14T17:42:39.389Z,97915.34
2018-06-14T17:45:08.524Z,97919.11
2018-06-14T17:47:37.738Z,97916.47
2018-06-14T17:50:06.406Z,97917.56
2018-06-14T17:52:35.358Z,97915.36
2018-06-14T17:55:04.416Z,97919.44
2018-06-14T17:57:33.829Z,97920.45
2018-06-14T18:00:02.745Z,97917.88
2018-06-14T18:02:32.029Z,97925.63
2018-06-14T18:05:00.770Z,97928.73
2018-06-14T18:07:29.316Z,97927.63
2018-06-14T18:09:58.056Z,97934.25
2018-06-14T18:12:26.925Z,97928.04
2018-06-14T18:14:55.916Z,97936.47
2018-06-14T18:17:24.517Z,97947.67
2018-06-14T18:19:53.737Z,97951.18
2018-06-14T18:22:22.392Z,97952.30
2018-06-14T18:24:51.103Z,97950.69
2018-06-14T18:27:19.948Z,97955.11
2018-06-14T18:29:48.691Z,97958.13
2018-06-14T18:32:17.694Z,97961.14
2018-06-14T18:34:47.133Z,97965.50
2018-06-14T18:37:16.085Z,97958.72
2018-06-14T18:39:45.343Z,97964.59
2018-06-14T18:42:14.271Z,97970.69
2018-06-14T18:44:43.243Z,97972.98
2018-06-14T18:47:12.175Z,97970.64
2018-06-14T18:49:40.983Z,97979.93
2018-06-14T18:52:09.673Z,97976.52
2018-06-14T18:54:38.715Z,97982.38
2018-06-14T18:57:07.995Z,97981.92
2018-06-14T18:59:37.719Z,97996.42
2018-06-14T19:02:06.677Z,97994.39
2018-06-14T19:04:35.733Z,97999.19
2018-06-14T19:07:04.616Z,97994.66
2018-06-14T19:09:33.642Z,98003.09
2018-06-14T19:12:02.490Z,98006.52
2018-06-14T19:14:31.616Z,98002.53
2018-06-14T19:17:00.831Z,98004.69
2018-06-14T19:19:30.006Z,98004.59
2018-06-14T19:21:59.050Z,98010.38
2018-06-14T19:24:27.725Z,98006.30
2018-06-14T19:26:56.500Z,98016.31
2018-06-14T19:29:25.228Z,98018.34
2018-06-14T19:31:54.226Z,98021.49
2018-06-14T19:34:23.163Z,98033.06
2018-06-14T19:36:52.071Z,98034.18
2018-06-14T19:39:20.971Z,98036.55
2018-06-14T19:41:49.744Z,98042.55
2018-06-14T19:44:18.475Z,98050.03
2018-06-14T19:46:47.489Z,98051.02
2018-06-14T19:49:16.515Z,98054.18
2018-06-14T19:51:45.239Z,98059.27
2018-06-14T19:54:14.168Z,98060.15
2018-06-14T19:56:43.054Z,98068.43
2018-06-14T19:59:11.760Z,98069.95
2018-06-14T20:01:40.958Z,98073.06
2018-06-14T20:04:10.169Z,98081.83
2018-06-14T20:06:39.130Z,98085.48
2018-06-14T20:09:09.061Z,98086.92
2018-06-14T20:11:37.881Z,98091.95
2018-06-14T20:14:07.664Z,98094.20
2018-06-14T20:16:36.385Z,98095.44
2018-06-14T20:19:05.144Z,98101.28
2018-06-14T20:21:34.796Z,98102.00
2018-06-14T20:24:03.758Z,98105.95
2018-06-14T20:26:32.511Z,98109.98
2018-06-14T20:29:01.304Z,98104.63
2018-06-14T20:31:30.064Z,98109.21
2018-06-14T20:33:58.920Z,98116.34
2018-06-14T20:36:28.090Z,98114.18
2018-06-14T20:38:57.520Z,98112.13
2018-06-14T20:41:26.490Z,98121.02
2018-06-14T20:43:56.370Z,98117.28
2018-06-14T20:46:25.354Z,98129.69
2018-06-14T20:48:54.415Z,98129.92
2018-06-14T20:51:23.391Z,98129.61
2018-06-14T20:53:52.727Z,98135.83
2018-06-14T20:56:21.726Z,98132.73
2018-06-14T20:58:50.579Z,98134.48
2018-06-14T21:01:19.399Z,98139.22
2018-06-14T21:03:48.494Z,98140.88
2018-06-14T21:06:17.299Z,98142.17
2018-06-14T21:08:46.132Z,98141.28
2018-06-14T21:11:15.204Z,98147.05
2018-06-14T21:13:43.904Z,98144.33
2018-06-14T21:16:12.766Z,98136.65
2018-06-14T21:18:41.883Z,98141.67
2018-06-14T21:21:11.267Z,98142.63
2018-06-14T21:23:40.316Z,98145.15
2018-06-14T21:26:09.316Z,98151.78
2018-06-14T21:28:38.834Z,98152.98
2018-06-14T21:31:07.949Z,98154.16
2018-06-14T21:33:36.623Z,98155.11
2018-06-14T21:36:05.582Z,98146.27
2018-06-14T21:38:34.711Z,98156.41
2018-06-14T21:41:03.475Z,98150.38
2018-06-14T21:43:32.154Z,98156.70
2018-06-14T21:46:01.184Z,98161.00
2018-06-14T21:48:30.016Z,98161.88
2018-06-14T21:50:58.937Z,98166.28
2018-06-14T21:53:28.137Z,98168.52
2018-06-14T21:55:57.066Z,98167.64
2018-06-14T21:58:39.230Z,98166.44
2018-06-14T22:01:08.567Z,98166.48
2018-06-14T22:03:42.623Z,98166.48
2018-06-14T22:06:11.585Z,98163.04
2018-06-14T22:08:40.997Z,98163.59
2018-06-14T22:11:10.422Z,98162.89
2018-06-14T22:13:39.206Z,98164.95
2018-06-14T22:16:08.017Z,98157.52
2018-06-14T22:18:36.903Z,98162.15
2018-06-14T22:21:05.730Z,98166.78
2018-06-14T22:23:34.347Z,98174.31
2018-06-14T22:26:03.906Z,98175.33
2018-06-14T22:28:32.860Z,98173.48
2018-06-14T22:31:01.758Z,98171.58
2018-06-14T22:33:41.751Z,98173.81
2018-06-14T22:36:10.550Z,98176.19
2018-06-14T22:38:39.507Z,98171.16
2018-06-14T22:41:08.266Z,98171.91
2018-06-14T22:43:37.135Z,98166.32
2018-06-14T22:46:06.125Z,98163.38
2018-06-14T22:48:34.766Z,98162.17
2018-06-14T22:51:18.569Z,98160.49
2018-06-14T22:53:47.585Z,98161.05
2018-06-14T22:56:16.285Z,98160.20
2018-06-14T22:58:45.362Z,98160.97
2018-06-14T23:01:35.334Z,98158.25
2018-06-14T23:04:04.519Z,98158.42
2018-06-14T23:06:33.160Z,98156.48
2018-06-14T23:10:05.362Z,98160.49
2018-06-14T23:12:34.647Z,98156.67
2018-06-14T23:15:04.160Z,98151.30
2018-06-14T23:17:33.235Z,98151.23
2018-06-14T23:20:02.195Z,98149.07
2018-06-14T23:22:30.932Z,98145.95
2018-06-14T23:24:59.775Z,98142.61
2018-06-14T23:27:28.512Z,98148.05
2018-06-14T23:29:57.237Z,98151.32
2018-06-14T23:32:26.217Z,98145.55
2018-06-14T23:34:55.024Z,98141.59
2018-06-14T23:37:23.870Z,98143.98
2018-06-14T23:39:54.270Z,98147.94
2018-06-14T23:42:23.553Z,98143.22
2018-06-14T23:44:52.906Z,98143.61
2018-06-14T23:47:21.935Z,98140.41
2018-06-14T23:49:50.883Z,98141.22
2018-06-14T23:52:19.811Z,98139.05
